sensor_id;sensor_type;location;lat;lon;timestamp;temperature;humidity
73438;DHT22;62744;56.802;23.964;2022-11-14T00:01:14;2.20;98.70
73438;DHT22;62744;56.802;23.964;2022-11-14T00:03:42;2.20;98.60
73438;DHT22;62744;56.802;23.964;2022-11-14T00:06:11;2.00;98.40
73438;DHT22;62744;56.802;23.964;2022-11-14T00:08:39;2.00;98.60
73438;DHT22;62744;56.802;23.964;2022-11-14T00:11:06;2.10;98.50
73438;DHT22;62744;56.802;23.964;2022-11-14T00:13:34;2.00;98.60
73438;DHT22;62744;56.802;23.964;2022-11-14T00:16:02;2.00;98.80
73438;DHT22;62744;56.802;23.964;2022-11-14T00:18:29;2.00;98.60
73438;DHT22;62744;56.802;23.964;2022-11-14T00:20:57;2.00;98.80
73438;DHT22;62744;56.802;23.964;2022-11-14T00:23:24;2.10;98.90
73438;DHT22;62744;56.802;23.964;2022-11-14T00:25:52;2.00;98.90
73438;DHT22;62744;56.802;23.964;2022-11-14T00:28:19;2.10;98.90
73438;DHT22;62744;56.802;23.964;2022-11-14T00:30:47;2.00;98.90
73438;DHT22;62744;56.802;23.964;2022-11-14T00:33:17;2.10;98.90
73438;DHT22;62744;56.802;23.964;2022-11-14T00:35:54;2.00;98.90
73438;DHT22;62744;56.802;23.964;2022-11-14T00:38:22;2.30;98.50
73438;DHT22;62744;56.802;23.964;2022-11-14T00:40:50;2.00;98.50
73438;DHT22;62744;56.802;23.964;2022-11-14T00:43:17;2.00;98.50
73438;DHT22;62744;56.802;23.964;2022-11-14T00:45:45;2.00;98.60
73438;DHT22;62744;56.802;23.964;2022-11-14T00:48:13;2.00;98.90
73438;DHT22;62744;56.802;23.964;2022-11-14T00:50:42;1.90;98.60
73438;DHT22;62744;56.802;23.964;2022-11-14T00:53:09;2.00;99.00
73438;DHT22;62744;56.802;23.964;2022-11-14T00:55:37;2.00;99.00
73438;DHT22;62744;56.802;23.964;2022-11-14T00:58:04;2.20;99.10
73438;DHT22;62744;56.802;23.964;2022-11-14T01:00:32;2.20;98.70
73438;DHT22;62744;56.802;23.964;2022-11-14T01:03:00;2.10;98.80
73438;DHT22;62744;56.802;23.964;2022-11-14T01:05:27;2.20;98.80
73438;DHT22;62744;56.802;23.964;2022-11-14T01:07:54;2.20;98.50
73438;DHT22;62744;56.802;23.964;2022-11-14T01:10:22;2.20;98.70
73438;DHT22;62744;56.802;23.964;2022-11-14T01:12:49;2.10;98.80
73438;DHT22;62744;56.802;23.964;2022-11-14T01:15:17;2.10;98.80
73438;DHT22;62744;56.802;23.964;2022-11-14T01:17:45;2.30;98.80
73438;DHT22;62744;56.802;23.964;2022-11-14T01:20:12;2.10;98.80
73438;DHT22;62744;56.802;23.964;2022-11-14T01:22:39;2.10;98.80
73438;DHT22;62744;56.802;23.964;2022-11-14T01:25:07;2.20;98.60
73438;DHT22;62744;56.802;23.964;2022-11-14T01:27:34;2.00;98.50
73438;DHT22;62744;56.802;23.964;2022-11-14T01:30:03;2.10;98.50
73438;DHT22;62744;56.802;23.964;2022-11-14T01:32:30;1.90;98.50
73438;DHT22;62744;56.802;23.964;2022-11-14T01:34:58;2.10;98.60
73438;DHT22;62744;56.802;23.964;2022-11-14T01:37:25;2.00;98.70
73438;DHT22;62744;56.802;23.964;2022-11-14T01:39:53;2.10;98.70
73438;DHT22;62744;56.802;23.964;2022-11-14T01:42:20;2.10;98.20
73438;DHT22;62744;56.802;23.964;2022-11-14T01:44:53;2.10;98.20
73438;DHT22;62744;56.802;23.964;2022-11-14T01:47:24;2.00;98.30
73438;DHT22;62744;56.802;23.964;2022-11-14T01:49:58;2.10;98.10
73438;DHT22;62744;56.802;23.964;2022-11-14T01:52:37;1.80;98.10
73438;DHT22;62744;56.802;23.964;2022-11-14T01:55:07;2.00;98.50
73438;DHT22;62744;56.802;23.964;2022-11-14T01:57:39;2.00;98.30
73438;DHT22;62744;56.802;23.964;2022-11-14T02:00:10;2.00;98.30
73438;DHT22;62744;56.802;23.964;2022-11-14T02:02:38;1.90;98.00
73438;DHT22;62744;56.802;23.964;2022-11-14T02:05:10;2.00;97.90
73438;DHT22;62744;56.802;23.964;2022-11-14T02:07:39;2.00;98.10
73438;DHT22;62744;56.802;23.964;2022-11-14T02:10:14;2.00;98.00
73438;DHT22;62744;56.802;23.964;2022-11-14T02:12:42;1.90;98.10
73438;DHT22;62744;56.802;23.964;2022-11-14T02:15:09;1.90;97.80
73438;DHT22;62744;56.802;23.964;2022-11-14T02:17:37;1.70;97.80
73438;DHT22;62744;56.802;23.964;2022-11-14T02:20:16;2.00;97.80
73438;DHT22;62744;56.802;23.964;2022-11-14T02:22:44;1.80;97.60
73438;DHT22;62744;56.802;23.964;2022-11-14T02:25:14;1.80;97.70
73438;DHT22;62744;56.802;23.964;2022-11-14T02:27:43;1.80;97.90
73438;DHT22;62744;56.802;23.964;2022-11-14T02:30:14;1.70;98.00
73438;DHT22;62744;56.802;23.964;2022-11-14T02:32:42;1.80;97.80
73438;DHT22;62744;56.802;23.964;2022-11-14T02:35:29;1.80;97.80
73438;DHT22;62744;56.802;23.964;2022-11-14T02:37:56;1.50;97.90
73438;DHT22;62744;56.802;23.964;2022-11-14T02:40:24;1.60;97.90
73438;DHT22;62744;56.802;23.964;2022-11-14T02:42:51;1.70;97.90
73438;DHT22;62744;56.802;23.964;2022-11-14T02:45:19;1.70;97.80
73438;DHT22;62744;56.802;23.964;2022-11-14T02:47:47;1.80;97.50
73438;DHT22;62744;56.802;23.964;2022-11-14T02:50:14;1.60;97.40
73438;DHT22;62744;56.802;23.964;2022-11-14T02:52:42;1.50;97.60
73438;DHT22;62744;56.802;23.964;2022-11-14T02:55:09;1.60;97.70
73438;DHT22;62744;56.802;23.964;2022-11-14T02:57:37;1.60;97.60
73438;DHT22;62744;56.802;23.964;2022-11-14T03:00:05;1.30;97.50
73438;DHT22;62744;56.802;23.964;2022-11-14T03:02:40;1.50;97.50
73438;DHT22;62744;56.802;23.964;2022-11-14T03:05:07;1.50;97.30
73438;DHT22;62744;56.802;23.964;2022-11-14T03:07:35;1.30;97.20
73438;DHT22;62744;56.802;23.964;2022-11-14T03:10:03;1.20;97.40
73438;DHT22;62744;56.802;23.964;2022-11-14T03:12:31;1.20;97.70
73438;DHT22;62744;56.802;23.964;2022-11-14T03:14:58;1.10;97.80
73438;DHT22;62744;56.802;23.964;2022-11-14T03:17:29;1.10;97.80
73438;DHT22;62744;56.802;23.964;2022-11-14T03:19:56;1.30;98.10
73438;DHT22;62744;56.802;23.964;2022-11-14T03:22:24;1.30;98.00
73438;DHT22;62744;56.802;23.964;2022-11-14T03:24:52;1.10;97.90
73438;DHT22;62744;56.802;23.964;2022-11-14T03:27:19;1.30;97.70
73438;DHT22;62744;56.802;23.964;2022-11-14T03:29:47;1.10;97.90
73438;DHT22;62744;56.802;23.964;2022-11-14T03:32:15;1.10;98.00
73438;DHT22;62744;56.802;23.964;2022-11-14T03:34:42;1.30;98.00
73438;DHT22;62744;56.802;23.964;2022-11-14T03:37:10;1.20;98.20
73438;DHT22;62744;56.802;23.964;2022-11-14T03:39:38;1.20;98.00
73438;DHT22;62744;56.802;23.964;2022-11-14T03:42:05;1.50;98.20
73438;DHT22;62744;56.802;23.964;2022-11-14T03:44:32;1.20;98.10
73438;DHT22;62744;56.802;23.964;2022-11-14T03:47:00;1.20;97.90
73438;DHT22;62744;56.802;23.964;2022-11-14T03:49:27;1.20;97.60
73438;DHT22;62744;56.802;23.964;2022-11-14T03:51:55;1.20;97.70
73438;DHT22;62744;56.802;23.964;2022-11-14T03:54:22;1.20;97.70
73438;DHT22;62744;56.802;23.964;2022-11-14T03:56:49;1.10;97.80
73438;DHT22;62744;56.802;23.964;2022-11-14T03:59:17;1.10;97.70
73438;DHT22;62744;56.802;23.964;2022-11-14T04:01:44;1.10;97.70
73438;DHT22;62744;56.802;23.964;2022-11-14T04:04:12;1.00;97.70
73438;DHT22;62744;56.802;23.964;2022-11-14T04:06:39;1.10;97.50
73438;DHT22;62744;56.802;23.964;2022-11-14T04:09:08;1.10;97.70
73438;DHT22;62744;56.802;23.964;2022-11-14T04:11:36;1.20;97.80
73438;DHT22;62744;56.802;23.964;2022-11-14T04:14:04;1.30;97.80
73438;DHT22;62744;56.802;23.964;2022-11-14T04:16:31;1.20;97.50
73438;DHT22;62744;56.802;23.964;2022-11-14T04:18:58;1.20;97.50
73438;DHT22;62744;56.802;23.964;2022-11-14T04:21:26;1.20;97.40
73438;DHT22;62744;56.802;23.964;2022-11-14T04:23:53;1.20;97.30
73438;DHT22;62744;56.802;23.964;2022-11-14T04:26:21;1.40;97.60
73438;DHT22;62744;56.802;23.964;2022-11-14T04:28:48;1.20;97.50
73438;DHT22;62744;56.802;23.964;2022-11-14T04:31:16;1.20;97.80
73438;DHT22;62744;56.802;23.964;2022-11-14T04:33:43;1.20;98.00
73438;DHT22;62744;56.802;23.964;2022-11-14T04:36:10;1.20;98.00
73438;DHT22;62744;56.802;23.964;2022-11-14T04:38:37;1.30;97.80
73438;DHT22;62744;56.802;23.964;2022-11-14T04:41:05;1.20;97.80
73438;DHT22;62744;56.802;23.964;2022-11-14T04:43:32;1.10;97.60
73438;DHT22;62744;56.802;23.964;2022-11-14T04:46:00;1.20;97.80
73438;DHT22;62744;56.802;23.964;2022-11-14T04:48:27;1.10;97.90
73438;DHT22;62744;56.802;23.964;2022-11-14T04:50:55;1.10;97.70
73438;DHT22;62744;56.802;23.964;2022-11-14T04:53:22;1.20;97.60
73438;DHT22;62744;56.802;23.964;2022-11-14T04:55:49;1.10;97.70
73438;DHT22;62744;56.802;23.964;2022-11-14T04:58:17;1.00;97.70
73438;DHT22;62744;56.802;23.964;2022-11-14T05:00:44;1.20;97.80
73438;DHT22;62744;56.802;23.964;2022-11-14T05:03:11;1.00;97.50
73438;DHT22;62744;56.802;23.964;2022-11-14T05:05:39;1.10;97.60
73438;DHT22;62744;56.802;23.964;2022-11-14T05:08:08;1.10;97.30
73438;DHT22;62744;56.802;23.964;2022-11-14T05:10:35;1.10;97.20
73438;DHT22;62744;56.802;23.964;2022-11-14T05:13:03;1.10;97.40
73438;DHT22;62744;56.802;23.964;2022-11-14T05:15:30;1.20;97.70
73438;DHT22;62744;56.802;23.964;2022-11-14T05:17:58;1.20;97.70
73438;DHT22;62744;56.802;23.964;2022-11-14T05:20:25;1.00;97.80
73438;DHT22;62744;56.802;23.964;2022-11-14T05:22:53;1.10;97.90
73438;DHT22;62744;56.802;23.964;2022-11-14T05:25:21;1.20;98.00
73438;DHT22;62744;56.802;23.964;2022-11-14T05:27:49;1.10;97.50
73438;DHT22;62744;56.802;23.964;2022-11-14T05:30:17;1.10;97.60
73438;DHT22;62744;56.802;23.964;2022-11-14T05:32:45;1.10;97.70
73438;DHT22;62744;56.802;23.964;2022-11-14T05:35:12;0.90;98.10
73438;DHT22;62744;56.802;23.964;2022-11-14T05:37:40;1.00;98.30
73438;DHT22;62744;56.802;23.964;2022-11-14T05:40:07;1.00;98.60
73438;DHT22;62744;56.802;23.964;2022-11-14T05:42:35;1.10;98.20
73438;DHT22;62744;56.802;23.964;2022-11-14T05:45:03;1.10;98.10
73438;DHT22;62744;56.802;23.964;2022-11-14T05:47:30;1.10;97.80
73438;DHT22;62744;56.802;23.964;2022-11-14T05:49:57;1.00;97.50
73438;DHT22;62744;56.802;23.964;2022-11-14T05:52:25;0.90;98.10
73438;DHT22;62744;56.802;23.964;2022-11-14T05:54:52;1.20;98.00
73438;DHT22;62744;56.802;23.964;2022-11-14T05:57:19;1.00;97.90
73438;DHT22;62744;56.802;23.964;2022-11-14T05:59:47;1.00;98.10
73438;DHT22;62744;56.802;23.964;2022-11-14T06:02:17;1.10;98.10
73438;DHT22;62744;56.802;23.964;2022-11-14T06:04:44;1.20;97.70
73438;DHT22;62744;56.802;23.964;2022-11-14T06:07:12;1.10;97.70
73438;DHT22;62744;56.802;23.964;2022-11-14T06:09:45;1.20;97.60
73438;DHT22;62744;56.802;23.964;2022-11-14T06:12:13;1.10;97.50
73438;DHT22;62744;56.802;23.964;2022-11-14T06:14:40;1.10;97.60
73438;DHT22;62744;56.802;23.964;2022-11-14T06:17:08;1.30;97.70
73438;DHT22;62744;56.802;23.964;2022-11-14T06:19:36;1.20;97.80
73438;DHT22;62744;56.802;23.964;2022-11-14T06:22:03;0.90;97.80
73438;DHT22;62744;56.802;23.964;2022-11-14T06:24:31;1.10;98.10
73438;DHT22;62744;56.802;23.964;2022-11-14T06:26:58;1.10;98.00
73438;DHT22;62744;56.802;23.964;2022-11-14T06:29:26;1.20;97.50
73438;DHT22;62744;56.802;23.964;2022-11-14T06:32:01;1.10;97.80
73438;DHT22;62744;56.802;23.964;2022-11-14T06:34:28;1.10;98.10
73438;DHT22;62744;56.802;23.964;2022-11-14T06:36:55;1.00;97.80
73438;DHT22;62744;56.802;23.964;2022-11-14T06:39:23;1.30;98.20
73438;DHT22;62744;56.802;23.964;2022-11-14T06:41:50;1.10;97.80
73438;DHT22;62744;56.802;23.964;2022-11-14T06:44:18;1.10;97.10
73438;DHT22;62744;56.802;23.964;2022-11-14T06:46:45;1.10;97.20
73438;DHT22;62744;56.802;23.964;2022-11-14T06:49:13;1.00;97.50
73438;DHT22;62744;56.802;23.964;2022-11-14T06:51:40;1.00;97.80
73438;DHT22;62744;56.802;23.964;2022-11-14T06:54:10;0.90;96.90
73438;DHT22;62744;56.802;23.964;2022-11-14T06:56:38;1.10;97.20
73438;DHT22;62744;56.802;23.964;2022-11-14T06:59:05;1.00;97.10
73438;DHT22;62744;56.802;23.964;2022-11-14T07:01:33;1.20;97.40
73438;DHT22;62744;56.802;23.964;2022-11-14T07:04:00;1.20;97.30
73438;DHT22;62744;56.802;23.964;2022-11-14T07:06:29;1.00;97.50
73438;DHT22;62744;56.802;23.964;2022-11-14T07:08:57;1.40;99.70
73438;DHT22;62744;56.802;23.964;2022-11-14T07:11:27;1.40;98.60
73438;DHT22;62744;56.802;23.964;2022-11-14T07:13:59;1.30;97.20
73438;DHT22;62744;56.802;23.964;2022-11-14T07:16:29;1.10;97.10
73438;DHT22;62744;56.802;23.964;2022-11-14T07:19:01;1.40;97.20
73438;DHT22;62744;56.802;23.964;2022-11-14T07:21:31;1.30;97.40
73438;DHT22;62744;56.802;23.964;2022-11-14T07:23:59;1.20;97.40
73438;DHT22;62744;56.802;23.964;2022-11-14T07:26:26;1.00;96.80
73438;DHT22;62744;56.802;23.964;2022-11-14T07:28:54;1.20;96.90
73438;DHT22;62744;56.802;23.964;2022-11-14T07:31:28;1.20;97.20
73438;DHT22;62744;56.802;23.964;2022-11-14T07:33:55;1.00;97.30
73438;DHT22;62744;56.802;23.964;2022-11-14T07:36:23;0.90;97.70
73438;DHT22;62744;56.802;23.964;2022-11-14T07:38:50;1.10;97.60
73438;DHT22;62744;56.802;23.964;2022-11-14T07:41:17;1.20;97.80
73438;DHT22;62744;56.802;23.964;2022-11-14T07:43:45;1.00;97.40
73438;DHT22;62744;56.802;23.964;2022-11-14T07:46:14;1.10;97.40
73438;DHT22;62744;56.802;23.964;2022-11-14T07:48:43;1.20;97.80
73438;DHT22;62744;56.802;23.964;2022-11-14T07:51:17;0.90;97.70
73438;DHT22;62744;56.802;23.964;2022-11-14T07:53:46;1.10;97.60
73438;DHT22;62744;56.802;23.964;2022-11-14T07:56:13;1.40;98.10
73438;DHT22;62744;56.802;23.964;2022-11-14T07:58:43;1.30;98.20
73438;DHT22;62744;56.802;23.964;2022-11-14T08:01:12;1.40;98.20
73438;DHT22;62744;56.802;23.964;2022-11-14T08:03:40;1.50;98.20
73438;DHT22;62744;56.802;23.964;2022-11-14T08:06:14;1.30;97.90
73438;DHT22;62744;56.802;23.964;2022-11-14T08:08:42;1.60;97.30
73438;DHT22;62744;56.802;23.964;2022-11-14T08:11:09;1.50;97.30
73438;DHT22;62744;56.802;23.964;2022-11-14T08:13:37;1.50;97.40
73438;DHT22;62744;56.802;23.964;2022-11-14T08:16:08;1.60;97.00
73438;DHT22;62744;56.802;23.964;2022-11-14T08:18:40;1.40;97.30
73438;DHT22;62744;56.802;23.964;2022-11-14T08:21:07;1.50;97.30
73438;DHT22;62744;56.802;23.964;2022-11-14T08:23:35;1.60;97.30
73438;DHT22;62744;56.802;23.964;2022-11-14T08:26:02;1.40;97.10
73438;DHT22;62744;56.802;23.964;2022-11-14T08:28:30;1.60;97.10
73438;DHT22;62744;56.802;23.964;2022-11-14T08:31:02;1.50;97.30
73438;DHT22;62744;56.802;23.964;2022-11-14T08:33:30;1.50;96.80
73438;DHT22;62744;56.802;23.964;2022-11-14T08:36:01;1.40;96.90
73438;DHT22;62744;56.802;23.964;2022-11-14T08:38:30;1.60;97.30
73438;DHT22;62744;56.802;23.964;2022-11-14T08:40:59;1.40;97.60
73438;DHT22;62744;56.802;23.964;2022-11-14T08:43:28;1.50;97.30
73438;DHT22;62744;56.802;23.964;2022-11-14T08:46:00;1.50;97.80
73438;DHT22;62744;56.802;23.964;2022-11-14T08:48:29;1.30;97.80
73438;DHT22;62744;56.802;23.964;2022-11-14T08:51:02;1.50;98.20
73438;DHT22;62744;56.802;23.964;2022-11-14T08:53:31;1.60;97.90
73438;DHT22;62744;56.802;23.964;2022-11-14T08:55:58;1.50;98.40
73438;DHT22;62744;56.802;23.964;2022-11-14T08:58:30;1.50;98.00
73438;DHT22;62744;56.802;23.964;2022-11-14T09:01:03;1.60;98.20
73438;DHT22;62744;56.802;23.964;2022-11-14T09:03:31;1.60;98.40
73438;DHT22;62744;56.802;23.964;2022-11-14T09:05:59;1.60;98.20
73438;DHT22;62744;56.802;23.964;2022-11-14T09:08:27;1.70;98.20
73438;DHT22;62744;56.802;23.964;2022-11-14T09:11:02;1.80;98.10
73438;DHT22;62744;56.802;23.964;2022-11-14T09:13:35;1.90;98.00
73438;DHT22;62744;56.802;23.964;2022-11-14T09:16:03;1.90;98.00
73438;DHT22;62744;56.802;23.964;2022-11-14T09:18:30;1.80;98.00
73438;DHT22;62744;56.802;23.964;2022-11-14T09:21:03;1.80;98.10
73438;DHT22;62744;56.802;23.964;2022-11-14T09:23:31;2.00;98.10
73438;DHT22;62744;56.802;23.964;2022-11-14T09:26:08;2.00;98.00
73438;DHT22;62744;56.802;23.964;2022-11-14T09:28:36;2.10;97.80
73438;DHT22;62744;56.802;23.964;2022-11-14T09:31:10;2.20;97.50
73438;DHT22;62744;56.802;23.964;2022-11-14T09:33:38;2.10;97.50
73438;DHT22;62744;56.802;23.964;2022-11-14T09:36:07;2.30;97.80
73438;DHT22;62744;56.802;23.964;2022-11-14T09:38:34;2.10;97.40
73438;DHT22;62744;56.802;23.964;2022-11-14T09:41:24;2.20;97.80
73438;DHT22;62744;56.802;23.964;2022-11-14T09:47:03;2.60;97.80
73438;DHT22;62744;56.802;23.964;2022-11-14T09:49:41;2.50;96.90
73438;DHT22;62744;56.802;23.964;2022-11-14T09:55:23;2.40;96.90
73438;DHT22;62744;56.802;23.964;2022-11-14T09:58:02;2.80;96.90
73438;DHT22;62744;56.802;23.964;2022-11-14T10:00:44;2.50;97.30
73438;DHT22;62744;56.802;23.964;2022-11-14T10:06:31;2.60;96.90
73438;DHT22;62744;56.802;23.964;2022-11-14T10:15:04;2.60;96.80
73438;DHT22;62744;56.802;23.964;2022-11-14T10:21:05;2.50;97.50
73438;DHT22;62744;56.802;23.964;2022-11-14T10:29:36;2.20;98.20
73438;DHT22;62744;56.802;23.964;2022-11-14T10:32:42;2.30;98.20
73438;DHT22;62744;56.802;23.964;2022-11-14T10:35:17;2.60;98.00
73438;DHT22;62744;56.802;23.964;2022-11-14T10:37:57;2.70;98.00
73438;DHT22;62744;56.802;23.964;2022-11-14T10:40:46;2.70;98.00
73438;DHT22;62744;56.802;23.964;2022-11-14T10:45:59;2.70;97.20
73438;DHT22;62744;56.802;23.964;2022-11-14T10:48:40;2.50;97.20
73438;DHT22;62744;56.802;23.964;2022-11-14T10:51:23;2.70;97.60
73438;DHT22;62744;56.802;23.964;2022-11-14T10:53:57;3.00;99.90
73438;DHT22;62744;56.802;23.964;2022-11-14T10:56:26;3.10;98.50
73438;DHT22;62744;56.802;23.964;2022-11-14T10:58:54;3.20;97.10
73438;DHT22;62744;56.802;23.964;2022-11-14T11:01:37;3.40;97.10
73438;DHT22;62744;56.802;23.964;2022-11-14T11:09:37;3.00;96.80
73438;DHT22;62744;56.802;23.964;2022-11-14T11:18:00;2.80;97.40
73438;DHT22;62744;56.802;23.964;2022-11-14T11:20:36;2.90;97.60
73438;DHT22;62744;56.802;23.964;2022-11-14T11:23:25;2.90;97.40
73438;DHT22;62744;56.802;23.964;2022-11-14T11:26:01;2.90;97.60
73438;DHT22;62744;56.802;23.964;2022-11-14T11:28:36;2.80;97.60
73438;DHT22;62744;56.802;23.964;2022-11-14T11:31:09;2.90;97.60
73438;DHT22;62744;56.802;23.964;2022-11-14T11:33:38;2.90;98.00
73438;DHT22;62744;56.802;23.964;2022-11-14T11:36:16;2.70;97.70
73438;DHT22;62744;56.802;23.964;2022-11-14T11:38:45;2.70;98.00
73438;DHT22;62744;56.802;23.964;2022-11-14T11:41:30;2.60;98.10
73438;DHT22;62744;56.802;23.964;2022-11-14T11:44:19;2.80;97.70
73438;DHT22;62744;56.802;23.964;2022-11-14T11:46:55;2.70;98.00
73438;DHT22;62744;56.802;23.964;2022-11-14T11:55:43;3.00;97.70
73438;DHT22;62744;56.802;23.964;2022-11-14T11:58:25;3.00;98.00
73438;DHT22;62744;56.802;23.964;2022-11-14T12:00:54;3.30;98.00
73438;DHT22;62744;56.802;23.964;2022-11-14T12:03:23;3.10;97.50
73438;DHT22;62744;56.802;23.964;2022-11-14T12:06:15;3.10;97.50
73438;DHT22;62744;56.802;23.964;2022-11-14T12:09:18;3.30;97.10
73438;DHT22;62744;56.802;23.964;2022-11-14T12:11:56;3.20;97.20
73438;DHT22;62744;56.802;23.964;2022-11-14T12:21:11;3.40;96.70
73438;DHT22;62744;56.802;23.964;2022-11-14T12:23:53;3.40;97.30
73438;DHT22;62744;56.802;23.964;2022-11-14T12:26:50;3.10;96.50
73438;DHT22;62744;56.802;23.964;2022-11-14T12:31:57;3.30;97.40
73438;DHT22;62744;56.802;23.964;2022-11-14T12:34:36;3.40;97.40
73438;DHT22;62744;56.802;23.964;2022-11-14T12:37:20;3.50;97.40
73438;DHT22;62744;56.802;23.964;2022-11-14T12:40:01;3.50;97.30
73438;DHT22;62744;56.802;23.964;2022-11-14T12:42:29;3.30;97.20
73438;DHT22;62744;56.802;23.964;2022-11-14T12:44:57;3.40;97.30
73438;DHT22;62744;56.802;23.964;2022-11-14T12:47:27;3.50;97.40
73438;DHT22;62744;56.802;23.964;2022-11-14T12:49:56;3.40;96.80
73438;DHT22;62744;56.802;23.964;2022-11-14T12:52:49;3.70;96.80
73438;DHT22;62744;56.802;23.964;2022-11-14T12:58:05;3.30;97.50
73438;DHT22;62744;56.802;23.964;2022-11-14T13:00:55;3.50;97.40
73438;DHT22;62744;56.802;23.964;2022-11-14T13:03:34;3.40;97.20
73438;DHT22;62744;56.802;23.964;2022-11-14T13:06:10;3.30;97.60
73438;DHT22;62744;56.802;23.964;2022-11-14T13:08:59;3.60;97.50
73438;DHT22;62744;56.802;23.964;2022-11-14T13:11:46;3.30;97.20
73438;DHT22;62744;56.802;23.964;2022-11-14T13:14:50;3.30;97.40
73438;DHT22;62744;56.802;23.964;2022-11-14T13:17:37;3.30;97.60
73438;DHT22;62744;56.802;23.964;2022-11-14T13:31:18;3.10;99.20
73438;DHT22;62744;56.802;23.964;2022-11-14T13:33:48;3.10;98.90
73438;DHT22;62744;56.802;23.964;2022-11-14T13:36:43;3.20;98.10
73438;DHT22;62744;56.802;23.964;2022-11-14T13:50:13;3.30;98.40
73438;DHT22;62744;56.802;23.964;2022-11-14T13:52:48;3.20;98.60
73438;DHT22;62744;56.802;23.964;2022-11-14T13:55:47;3.20;98.50
73438;DHT22;62744;56.802;23.964;2022-11-14T14:15:29;3.00;99.10
73438;DHT22;62744;56.802;23.964;2022-11-14T14:23:27;3.00;98.80
73438;DHT22;62744;56.802;23.964;2022-11-14T14:31:44;2.90;99.30
73438;DHT22;62744;56.802;23.964;2022-11-14T14:34:29;2.90;99.00
73438;DHT22;62744;56.802;23.964;2022-11-14T14:36:57;2.90;99.20
73438;DHT22;62744;56.802;23.964;2022-11-14T14:39:26;3.00;99.10
73438;DHT22;62744;56.802;23.964;2022-11-14T14:41:56;2.90;99.50
73438;DHT22;62744;56.802;23.964;2022-11-14T14:44:35;2.70;99.70
73438;DHT22;62744;56.802;23.964;2022-11-14T14:50:00;2.90;99.40
73438;DHT22;62744;56.802;23.964;2022-11-14T14:52:34;3.00;99.80
73438;DHT22;62744;56.802;23.964;2022-11-14T14:55:15;2.90;99.50
73438;DHT22;62744;56.802;23.964;2022-11-14T14:57:44;3.00;99.90
73438;DHT22;62744;56.802;23.964;2022-11-14T15:00:23;3.10;99.70
73438;DHT22;62744;56.802;23.964;2022-11-14T15:02:56;3.10;99.90
73438;DHT22;62744;56.802;23.964;2022-11-14T15:05:26;3.00;99.90
73438;DHT22;62744;56.802;23.964;2022-11-14T15:07:58;3.10;99.90
73438;DHT22;62744;56.802;23.964;2022-11-14T15:10:28;3.10;99.90
73438;DHT22;62744;56.802;23.964;2022-11-14T15:12:57;3.00;99.90
73438;DHT22;62744;56.802;23.964;2022-11-14T15:15:26;3.30;99.90
73438;DHT22;62744;56.802;23.964;2022-11-14T15:17:55;3.00;99.90
73438;DHT22;62744;56.802;23.964;2022-11-14T15:20:28;3.10;99.90
73438;DHT22;62744;56.802;23.964;2022-11-14T15:23:18;3.00;99.90
73438;DHT22;62744;56.802;23.964;2022-11-14T15:25:46;3.20;99.90
73438;DHT22;62744;56.802;23.964;2022-11-14T15:28:16;3.20;99.90
73438;DHT22;62744;56.802;23.964;2022-11-14T15:30:58;3.00;99.90
73438;DHT22;62744;56.802;23.964;2022-11-14T15:33:32;3.10;99.90
73438;DHT22;62744;56.802;23.964;2022-11-14T15:36:10;3.20;99.90
73438;DHT22;62744;56.802;23.964;2022-11-14T15:38:39;3.00;99.90
73438;DHT22;62744;56.802;23.964;2022-11-14T15:41:17;3.10;99.90
73438;DHT22;62744;56.802;23.964;2022-11-14T15:43:51;3.30;99.90
73438;DHT22;62744;56.802;23.964;2022-11-14T15:49:21;3.20;99.90
73438;DHT22;62744;56.802;23.964;2022-11-14T15:51:55;3.30;99.90
73438;DHT22;62744;56.802;23.964;2022-11-14T15:54:33;3.20;99.90
73438;DHT22;62744;56.802;23.964;2022-11-14T15:57:11;3.40;99.90
73438;DHT22;62744;56.802;23.964;2022-11-14T15:59:40;3.20;99.90
73438;DHT22;62744;56.802;23.964;2022-11-14T16:02:16;3.30;99.70
73438;DHT22;62744;56.802;23.964;2022-11-14T16:04:45;3.20;99.70
73438;DHT22;62744;56.802;23.964;2022-11-14T16:07:15;3.20;99.70
73438;DHT22;62744;56.802;23.964;2022-11-14T16:09:43;3.20;99.90
73438;DHT22;62744;56.802;23.964;2022-11-14T16:12:11;3.20;99.90
73438;DHT22;62744;56.802;23.964;2022-11-14T16:14:40;3.00;99.80
73438;DHT22;62744;56.802;23.964;2022-11-14T16:17:16;2.90;99.90
73438;DHT22;62744;56.802;23.964;2022-11-14T16:19:45;2.80;99.80
73438;DHT22;62744;56.802;23.964;2022-11-14T16:22:16;3.20;99.90
73438;DHT22;62744;56.802;23.964;2022-11-14T16:24:44;3.00;99.90
73438;DHT22;62744;56.802;23.964;2022-11-14T16:27:11;2.90;99.90
73438;DHT22;62744;56.802;23.964;2022-11-14T16:29:39;3.20;99.90
73438;DHT22;62744;56.802;23.964;2022-11-14T16:32:09;3.30;99.90
73438;DHT22;62744;56.802;23.964;2022-11-14T16:34:37;3.10;99.90
73438;DHT22;62744;56.802;23.964;2022-11-14T16:37:04;3.20;99.90
73438;DHT22;62744;56.802;23.964;2022-11-14T16:39:32;3.20;99.90
73438;DHT22;62744;56.802;23.964;2022-11-14T16:42:00;3.40;99.90
73438;DHT22;62744;56.802;23.964;2022-11-14T16:44:29;3.30;99.90
73438;DHT22;62744;56.802;23.964;2022-11-14T16:47:06;3.30;99.90
73438;DHT22;62744;56.802;23.964;2022-11-14T16:49:34;3.20;99.90
73438;DHT22;62744;56.802;23.964;2022-11-14T16:52:02;3.40;99.90
73438;DHT22;62744;56.802;23.964;2022-11-14T16:54:34;3.30;99.90
73438;DHT22;62744;56.802;23.964;2022-11-14T16:57:02;3.40;99.90
73438;DHT22;62744;56.802;23.964;2022-11-14T16:59:30;3.20;99.90
73438;DHT22;62744;56.802;23.964;2022-11-14T17:01:58;3.30;99.90
73438;DHT22;62744;56.802;23.964;2022-11-14T17:04:26;3.30;99.90
73438;DHT22;62744;56.802;23.964;2022-11-14T17:06:54;3.10;99.90
73438;DHT22;62744;56.802;23.964;2022-11-14T17:09:21;3.40;99.90
73438;DHT22;62744;56.802;23.964;2022-11-14T17:11:49;3.00;99.90
73438;DHT22;62744;56.802;23.964;2022-11-14T17:14:16;3.30;99.90
73438;DHT22;62744;56.802;23.964;2022-11-14T17:16:45;3.20;99.90
73438;DHT22;62744;56.802;23.964;2022-11-14T17:19:12;3.30;99.90
73438;DHT22;62744;56.802;23.964;2022-11-14T17:21:40;3.30;99.90
73438;DHT22;62744;56.802;23.964;2022-11-14T17:24:07;3.40;99.90
73438;DHT22;62744;56.802;23.964;2022-11-14T17:26:35;3.20;99.90
73438;DHT22;62744;56.802;23.964;2022-11-14T17:29:03;3.10;99.90
73438;DHT22;62744;56.802;23.964;2022-11-14T17:31:32;3.30;99.90
73438;DHT22;62744;56.802;23.964;2022-11-14T17:34:08;3.30;99.90
73438;DHT22;62744;56.802;23.964;2022-11-14T17:36:36;3.30;99.90
73438;DHT22;62744;56.802;23.964;2022-11-14T17:39:04;3.30;99.90
73438;DHT22;62744;56.802;23.964;2022-11-14T17:41:35;3.30;99.90
73438;DHT22;62744;56.802;23.964;2022-11-14T17:44:03;3.40;99.90
73438;DHT22;62744;56.802;23.964;2022-11-14T17:46:32;3.10;99.90